• Join FlightAware (Why Join?)
  • Login
  • US Flag 
12:11PM EDT


 

Airport Tracker/Info


-or-


 

Live Flight TrackerFlight Track Log ✈ SKW6301 ✈ 06-Sep-2013 ✈ KDEN - KICT

Flight Track Log - Related Links

Times and Time Zones

All times are in EDT time to prevent confusion due to time zone crossing. See the SKW6301 flight status page for this flight to view local times or setup timezone preferences in your user account.

Time Position Orientation Groundspeed Altitude Reporting Facility
EDT Latitude Longitude Course Direction KTS MPH feet Rate Location/Type
12:09AM 39.9000 -104.6500 110° East 215 247 8,400  Level Denver TRACON
12:10AM 39.8667 -104.5667 118° Southeast 245 282 10,600 1,980 Climbing Denver TRACON
12:11AM 39.8333 -104.4667 113° Southeast 296 341 12,400 2,160 Climbing Denver TRACON
12:12AM 39.6601 -103.9260 110° East  Level Estimated
12:12AM 39.8039 -104.3767 113° Southeast 307 353 15,000  Level Denver Center
12:13AM 39.6152 -103.7791 112° Southeast  Level FlightAware Approximate
12:13AM 39.7692 -104.2733 114° Southeast 313 360 17,500  Level Denver Center
12:14AM 39.5742 -103.6304 110° East  Level Estimated
12:14AM 39.7317 -104.1661 114° Southeast 326 375 19,600  Level Denver Center
12:15AM 39.6881 -104.0433 115° Southeast 350 403 21,200 1,740 Climbing Denver Center
12:16AM 39.6431 -103.9239 116° Southeast 368 423 23,200 1,860 Climbing Denver Center
12:17AM 39.6008 -103.8208 118° Southeast 369 425 25,000 1,800 Climbing Denver Center
12:18AM 39.5600 -103.6714 109° East 363 418 26,900 1,620 Climbing Denver Center
12:19AM 39.5236 -103.5353 109° East 393 452 28,300 1,380 Climbing Denver Center
12:20AM 39.4850 -103.3975 110° East 406 467 29,700 1,320 Climbing Denver Center
12:21AM 39.4464 -103.2569 110° East 413 475 31,100 1,320 Climbing Denver Center
12:22AM 39.4067 -103.1144 110° East 420 483 32,500 1,260 Climbing Denver Center
12:23AM 39.3669 -102.9706 110° East 424 488 33,700 1,140 Climbing Denver Center
12:24AM 39.3261 -102.8228 110° East 435 501 34,800 1,080 Climbing Denver Center
12:25AM 39.2839 -102.6758 110° East 440 506 35,900 1,080 Climbing Denver Center
12:26AM 39.2436 -102.5322 110° East 444 511 37,000 1,140 Climbing Denver Center
12:27AM 39.1964 -102.3658 110° East 442 509 38,200 960 Climbing Denver Center
12:28AM 39.1558 -102.2256 110° East 437 503 39,000 360 Climbing Denver Center
12:29AM 39.1150 -102.0844 110° East 440 506 39,000  Level Denver Center
12:30AM 39.0664 -101.9169 110° East 447 514 39,000  Level Denver Center
12:31AM 39.0247 -101.7725 110° East 449 517 39,000  Level Denver Center
12:32AM 38.9836 -101.6317 111° Southeast 443 510 39,000  Level Denver Center
12:33AM 38.9344 -101.4683 111° Southeast 440 506 39,000  Level Denver Center
12:34AM 38.8931 -101.3272 111° Southeast 440 506 39,000  Level Denver Center
12:35AM 38.8511 -101.1894 111° Southeast 435 501 39,000  Level Denver Center
12:36AM 38.8033 -101.0267 111° Southeast 436 502 39,000  Level Denver Center
12:37AM 38.7619 -100.8889 111° Southeast 433 498 39,000  Level Denver Center
12:38AM 38.7203 -100.7508 111° Southeast 434 499 39,000  Level Denver Center
12:39AM 38.6711 -100.5917 112° Southeast 431 496 39,000  Level Denver Center
12:40AM 38.6289 -100.4542 111° Southeast 431 496 39,000  Level Denver Center
12:41AM 38.5872 -100.3169 111° Southeast 431 496 39,000  Level Kansas City Center
12:42AM 38.5439 -100.1789 112° Southeast 435 501 39,000  Level Kansas City Center
12:43AM 38.5000 -100.0400 112° Southeast 438 504 39,000  Level Kansas City Center
12:44AM 38.4561 -99.9006 112° Southeast 441 507 39,000  Level Kansas City Center
12:45AM 38.4044 -99.7361 112° Southeast 445 512 39,000 -240 Level Kansas City Center
12:46AM 38.3592 -99.5967 112° Southeast 445 512 38,600 -1,140 Descending Kansas City Center
12:47AM 38.3153 -99.4561 112° Southeast 446 513 36,800 -1,320 Descending Kansas City Center
12:48AM 38.2672 -99.3042 112° Southeast 459 528 36,000 -420 Descending Kansas City Center
12:49AM 38.2206 -99.1608 112° Southeast 445 512 36,000  Level Kansas City Center
12:50AM 38.1772 -99.0247 112° Southeast 426 490 36,000 -480 Level Kansas City Center
12:51AM 38.1325 -98.8856 112° Southeast 423 487 35,100 -2,220 Descending Kansas City Center
12:52AM 38.0822 -98.7344 113° Southeast 458 527 31,600 -3,480 Descending Kansas City Center
12:53AM 38.0342 -98.5867 112° Southeast 456 525 28,100 -3,540 Descending Kansas City Center
12:54AM 37.9883 -98.4433 112° Southeast 445 512 24,500 -4,020 Descending Kansas City Center
12:54AM 37.9725 -98.3975 114° Southeast 434 499 23,400 -3,540 Descending Kansas City Center
12:55AM 37.9431 -98.3061 112° Southeast 429 494 21,000 -3,660 Descending Kansas City Center
12:55AM 37.9267 -98.2611 115° Southeast 418 481 19,700 -3,840 Descending Kansas City Center
12:56AM 37.8983 -98.1722 112° Southeast 417 480 17,100 -3,900 Descending Kansas City Center
12:56AM 37.8833 -98.1294 114° Southeast 411 473 15,800 -3,840 Descending Kansas City Center
12:57AM 37.8614 -98.0433 108° East 398 458 13,300 -3,660 Descending Kansas City Center
12:57AM 37.8522 -97.9964 104° East 383 441 12,100 -2,700 Descending Kansas City Center
12:58AM 37.8325 -97.8950 104° East 371 427 10,600 -1,680 Descending Kansas City Center
12:58AM 37.8283 -97.8756 105° East 341 392 10,400 -1,140 Descending Kansas City Center
12:59AM 37.8131 -97.7917 103° East 331 381 9,500 -1,320 Descending Kansas City Center
12:59AM 37.8106 -97.7747 101° East 279 321 9,100 -1,980 Descending Kansas City Center
01:00AM 37.7953 -97.6972 104° East 292 336 7,500 -2,100 Descending Kansas City Center
01:00AM 37.7897 -97.6667 103° East 271 312 6,800 -2,040 Descending Kansas City Center
01:01AM 37.7797 -97.6047 102° East 280 322 5,500 -2,100 Descending Kansas City Center
01:01AM 37.7825 -97.5700 84° East 282 325 4,700 -1,500 Descending Kansas City Center
01:02AM 37.7831 -97.5058 89° East 283 326 4,000 -900 Descending Kansas City Center
01:02AM 37.7778 -97.4781 104° East 250 288 3,800 -840 Descending Kansas City Center
01:03AM 37.7625 -97.4294 112° Southeast 241 277 3,200 -720 Descending Kansas City Center
01:03AM 37.7542 -97.4075 116° Southeast 193 222 3,100 -600 Descending Kansas City Center
01:04AM 37.7297 -97.4019 170° South 185 213 2,600 -720 Descending Kansas City Center
01:04AM 37.7206 -97.4075 206° Southwest 112 129 2,500 -420 Descending Kansas City Center
01:05AM 37.7022 -97.4156 199° South 134 154 2,200 -420 Descending Kansas City Center
01:05AM 37.6944 -97.4194 202° Southwest 88 101 2,100 -540 Descending Kansas City Center
01:06AM 37.6750 -97.4272 198° South 112 129 1,700 -600 Descending Kansas City Center
01:06AM 37.6661 -97.4317 202° Southwest 109 125 1,500 -120 Descending Kansas City Center
01:07AM 37.6467 -97.4403 199° South 111 128 1,600 120 Climbing Kansas City Center